Terminal Aerodrome Forecast
Issued by NWS North Platte, NE

Home | Current Version | Previous Version | Text Only | Print | Product List | Glossary On
Versions: 1 2 3 4 5 6 7 8 9 10 11 12 13 14 15 16 17 18 19 20 21 22 23 24 25
348
FTUS43 KLBF 222333
TAFVTN
TAF
KVTN 222333Z 2300/2324 18017G25KT P6SM SCT250
     FM230400 18014G23KT P6SM BKN200 WS020/19040KT
     FM230600 18012G22KT P6SM BKN200
     FM231100 18009KT P6SM OVC015
     FM231900 19010KT P6SM BKN050
     FM232200 22008KT P6SM BKN120=

USA.gov is the U.S. government's official web portal to all federal, state and local government web resources and services.